Time;durP1;ratioP1;P1;durP2;ratioP2;P2;SDS_P1;SDS_P2;PMS_P1;PMS_P2;Temp;Humidity;BMP_temperature;BMP_pressure;BME280_temperature;BME280_humidity;BME280_pressure;Samples;Min_cycle;Max_cycle;Signal;HPM_P1;HPM_P2
2021/12/26 00:02:12;;;;;;;9.57;4.55;;;-5.30;99.90;;;;;;5042896;28;20044;-60
2021/12/26 00:04:38;;;;;;;10.05;4.40;;;-5.30;99.90;;;;;;5077569;28;20469;-61
2021/12/26 00:07:04;;;;;;;10.85;4.43;;;-5.30;99.90;;;;;;5076939;28;20040;-61
2021/12/26 00:09:30;;;;;;;8.70;3.95;;;-5.30;99.90;;;;;;5077022;28;20048;-62
2021/12/26 00:11:58;;;;;;;8.30;4.18;;;-5.30;99.90;;;;;;5075800;28;20044;-61
2021/12/26 00:14:24;;;;;;;8.88;3.72;;;-5.30;99.90;;;;;;5077008;28;20063;-61
2021/12/26 00:16:51;;;;;;;10.65;4.45;;;-5.30;99.90;;;;;;5077137;28;20833;-61
2021/12/26 00:19:17;;;;;;;12.57;4.97;;;-5.30;99.90;;;;;;5077126;28;20044;-61
2021/12/26 00:21:43;;;;;;;12.13;4.70;;;-5.30;99.90;;;;;;5075766;28;20086;-62
2021/12/26 00:24:09;;;;;;;9.48;4.55;;;-5.30;99.90;;;;;;5076877;28;20067;-61
2021/12/26 00:26:37;;;;;;;13.00;5.07;;;-5.30;99.90;;;;;;5076758;28;20064;-61
2021/12/26 00:29:04;;;;;;;8.95;4.82;;;-5.30;99.90;;;;;;5076429;28;20055;-61
2021/12/26 00:31:30;;;;;;;10.95;3.42;;;-5.30;99.90;;;;;;5077045;28;20127;-61
2021/12/26 00:33:56;;;;;;;9.50;5.13;;;-5.30;99.90;;;;;;5076876;28;20052;-61
2021/12/26 00:36:22;;;;;;;10.88;5.00;;;-5.40;99.90;;;;;;5077896;28;20044;-60
2021/12/26 00:38:48;;;;;;;10.95;4.22;;;-5.30;99.90;;;;;;5079631;28;20101;-61
2021/12/26 00:41:14;;;;;;;9.77;4.25;;;-5.30;99.90;;;;;;5080800;28;20040;-61
2021/12/26 00:43:39;;;;;;;10.52;4.28;;;-5.30;99.90;;;;;;5080553;28;20044;-61
2021/12/26 00:46:06;;;;;;;9.77;3.70;;;-5.30;99.90;;;;;;5062474;28;20044;-61
2021/12/26 00:48:32;;;;;;;11.55;3.85;;;-5.40;99.90;;;;;;5080865;28;20051;-61
2021/12/26 00:50:57;;;;;;;10.60;3.97;;;-5.40;99.90;;;;;;5092255;28;20036;-61
2021/12/26 00:53:24;;;;;;;11.18;4.38;;;-5.40;99.90;;;;;;5099600;28;20055;-62
2021/12/26 00:55:50;;;;;;;7.28;3.75;;;-5.40;99.90;;;;;;5084237;28;20104;-61
2021/12/26 00:58:16;;;;;;;8.25;3.28;;;-5.40;99.90;;;;;;5080623;28;20047;-61
2021/12/26 01:00:46;;;;;;;11.43;3.80;;;-5.40;99.90;;;;;;5080238;28;20048;-61
2021/12/26 01:03:13;;;;;;;7.75;3.55;;;-5.40;99.90;;;;;;5079962;28;20060;-62
2021/12/26 01:05:42;;;;;;;10.43;3.42;;;-5.40;99.90;;;;;;5079204;28;20057;-61
2021/12/26 01:08:13;;;;;;;9.05;3.72;;;-5.40;99.90;;;;;;5080275;28;20056;-61
2021/12/26 01:10:54;;;;;;;7.70;2.83;;;-5.40;99.90;;;;;;5079437;28;20047;-61
2021/12/26 01:15:57;;;;;;;8.25;3.90;;;-5.30;99.90;;;;;;5080289;28;20048;-63
2021/12/26 01:18:24;;;;;;;7.35;3.65;;;-5.40;99.90;;;;;;5080103;28;20481;-62
2021/12/26 01:20:56;;;;;;;8.65;3.33;;;-5.40;99.90;;;;;;5080202;28;20045;-62
2021/12/26 01:23:24;;;;;;;11.52;3.40;;;-5.40;99.90;;;;;;5080173;28;20045;-62
2021/12/26 01:25:51;;;;;;;6.57;3.17;;;-5.40;99.90;;;;;;5080230;28;20871;-63
2021/12/26 01:28:19;;;;;;;6.93;3.13;;;-5.40;99.90;;;;;;5080029;28;20115;-62
2021/12/26 01:30:45;;;;;;;8.40;2.78;;;-5.40;99.90;;;;;;5080020;28;20060;-61
2021/12/26 01:33:15;;;;;;;6.72;3.10;;;-5.50;99.90;;;;;;5079889;28;20473;-64
2021/12/26 01:35:41;;;;;;;9.13;3.47;;;-5.40;99.90;;;;;;5080200;28;20080;-61
2021/12/26 01:38:10;;;;;;;7.00;2.95;;;-5.50;99.90;;;;;;5079911;28;20069;-62
2021/12/26 01:40:39;;;;;;;9.65;4.10;;;-5.40;99.90;;;;;;5079910;28;20131;-61
2021/12/26 01:43:05;;;;;;;8.43;3.20;;;-5.60;99.90;;;;;;5078505;28;20102;-63
2021/12/26 01:45:31;;;;;;;7.60;3.17;;;-5.50;99.90;;;;;;5079493;28;20028;-61
2021/12/26 01:48:00;;;;;;;6.95;2.72;;;-5.60;99.90;;;;;;5079350;28;20048;-61
2021/12/26 01:50:27;;;;;;;7.70;3.80;;;-5.60;99.90;;;;;;5086683;28;20044;-61
2021/12/26 01:52:53;;;;;;;6.30;3.42;;;-5.30;99.90;;;;;;5100135;28;20043;-61
2021/12/26 01:55:25;;;;;;;9.80;3.33;;;-5.70;99.90;;;;;;5087220;28;20048;-61
2021/12/26 01:57:54;;;;;;;7.80;2.83;;;-5.70;99.90;;;;;;5078583;28;20052;-61
2021/12/26 02:00:25;;;;;;;7.85;3.55;;;-5.50;99.90;;;;;;5078228;28;20115;-61
2021/12/26 02:02:51;;;;;;;8.38;3.55;;;-5.50;99.90;;;;;;5079436;28;20052;-61
2021/12/26 02:05:17;;;;;;;9.07;3.40;;;-5.60;99.90;;;;;;5079290;28;20048;-61
2021/12/26 02:07:43;;;;;;;8.77;4.30;;;-5.60;99.90;;;;;;5079240;28;20087;-61
2021/12/26 02:10:09;;;;;;;8.27;3.08;;;-5.50;99.90;;;;;;5079238;28;20077;-60
2021/12/26 02:12:35;;;;;;;7.70;3.05;;;-5.50;99.90;;;;;;5080027;28;20063;-61
2021/12/26 02:15:01;;;;;;;8.05;3.63;;;-5.60;99.90;;;;;;5079405;28;20140;-61
2021/12/26 02:17:28;;;;;;;11.07;4.25;;;-5.60;99.90;;;;;;5079318;28;20055;-61
2021/12/26 02:20:17;;;;;;;6.63;3.28;;;-5.60;99.90;;;;;;5079424;28;20083;-61
2021/12/26 02:22:47;;;;;;;8.80;3.10;;;-5.70;99.90;;;;;;5079429;28;20055;-61
2021/12/26 02:25:32;;;;;;;8.75;3.42;;;-5.60;99.90;;;;;;5079339;28;20059;-61
2021/12/26 02:27:58;;;;;;;7.30;3.20;;;-5.60;99.90;;;;;;5079413;28;20048;-61
2021/12/26 02:30:24;;;;;;;9.85;3.35;;;-5.60;99.90;;;;;;5079418;28;20131;-61
2021/12/26 02:32:51;;;;;;;9.07;3.47;;;-5.70;99.90;;;;;;5079356;28;20052;-62
2021/12/26 02:35:21;;;;;;;6.38;3.00;;;-5.60;99.90;;;;;;5078107;28;20446;-61
2021/12/26 02:37:48;;;;;;;10.40;3.03;;;-5.60;99.90;;;;;;5079054;28;20374;-61
2021/12/26 02:40:16;;;;;;;7.90;2.55;;;-5.70;99.90;;;;;;5079626;28;20044;-61
2021/12/26 02:42:43;;;;;;;6.20;2.30;;;-5.70;99.90;;;;;;5079141;28;20424;-61
2021/12/26 02:45:08;;;;;;;6.47;2.30;;;-5.60;99.90;;;;;;5078966;28;20048;-61
2021/12/26 02:47:41;;;;;;;6.93;2.33;;;-5.60;99.90;;;;;;5079111;28;20060;-61
2021/12/26 02:50:15;;;;;;;8.57;2.80;;;-5.70;99.90;;;;;;5083395;28;20090;-61
2021/12/26 02:52:41;;;;;;;9.23;2.88;;;-5.70;99.90;;;;;;5099021;28;20048;-61
2021/12/26 02:55:09;;;;;;;6.30;2.50;;;-5.60;99.90;;;;;;5087937;28;20041;-61
2021/12/26 02:57:35;;;;;;;7.30;2.10;;;-5.60;99.90;;;;;;5079097;28;20389;-61
2021/12/26 03:00:24;;;;;;;5.85;2.70;;;-5.60;99.90;;;;;;5078298;28;20153;-61
2021/12/26 03:02:52;;;;;;;6.50;2.30;;;-5.60;99.90;;;;;;5078434;28;20048;-61
2021/12/26 03:05:19;;;;;;;6.13;2.42;;;-5.50;99.90;;;;;;5078383;28;20480;-61
2021/12/26 03:07:47;;;;;;;6.93;2.38;;;-5.50;99.90;;;;;;5078287;28;20052;-62
2021/12/26 03:10:21;;;;;;;6.65;2.53;;;-5.60;99.90;;;;;;5078661;28;20052;-62
2021/12/26 03:12:52;;;;;;;8.93;2.97;;;-5.50;99.90;;;;;;5078425;28;20119;-61
2021/12/26 03:15:18;;;;;;;6.90;2.17;;;-5.60;99.90;;;;;;5078237;28;20550;-61
2021/12/26 03:17:45;;;;;;;6.65;2.47;;;-5.60;99.90;;;;;;5078175;28;20045;-61
2021/12/26 03:20:13;;;;;;;6.20;2.53;;;-5.60;99.90;;;;;;5078013;28;20070;-61
2021/12/26 03:22:39;;;;;;;6.65;2.55;;;-5.60;99.90;;;;;;5078209;28;20685;-61
2021/12/26 03:25:11;;;;;;;6.53;2.20;;;-5.70;99.90;;;;;;5078167;28;20389;-61
2021/12/26 03:27:37;;;;;;;5.57;2.60;;;-5.60;99.90;;;;;;5078228;28;20063;-61
2021/12/26 03:30:06;;;;;;;5.85;2.30;;;-5.60;99.90;;;;;;5076841;28;20303;-61
2021/12/26 03:32:32;;;;;;;5.13;2.03;;;-5.60;99.90;;;;;;5078015;28;20075;-61
2021/12/26 03:34:58;;;;;;;6.50;2.72;;;-5.50;99.90;;;;;;5076651;28;20071;-62
2021/12/26 03:37:23;;;;;;;5.90;2.00;;;-5.50;99.90;;;;;;5059489;28;20037;-62
2021/12/26 03:39:49;;;;;;;5.05;2.22;;;-5.50;99.90;;;;;;5077565;28;20088;-62
2021/12/26 03:42:15;;;;;;;6.90;2.28;;;-5.50;99.90;;;;;;5077787;28;20457;-61
2021/12/26 03:44:41;;;;;;;7.05;2.20;;;-5.60;99.90;;;;;;5076753;28;20047;-61
2021/12/26 03:47:07;;;;;;;5.78;2.10;;;-5.50;99.90;;;;;;5077447;28;20432;-62
2021/12/26 03:49:34;;;;;;;5.43;2.30;;;-5.60;99.90;;;;;;5077455;28;20107;-61
2021/12/26 03:52:00;;;;;;;7.47;2.63;;;-5.60;99.90;;;;;;5056107;28;20049;-62
2021/12/26 03:54:25;;;;;;;5.80;2.47;;;-5.60;99.90;;;;;;5062889;28;20045;-61
2021/12/26 03:56:54;;;;;;;6.60;2.25;;;-5.60;99.90;;;;;;5076252;28;20040;-61
2021/12/26 03:59:20;;;;;;;4.63;1.73;;;-5.60;99.90;;;;;;5077348;28;20045;-61
2021/12/26 04:01:45;;;;;;;7.35;2.15;;;-5.50;99.90;;;;;;5077515;28;20072;-61
2021/12/26 04:04:11;;;;;;;6.97;2.30;;;-5.50;99.90;;;;;;5077542;28;20045;-62
2021/12/26 04:06:37;;;;;;;5.85;1.85;;;-5.50;99.90;;;;;;5077131;28;20045;-61
2021/12/26 04:09:03;;;;;;;6.40;2.00;;;-5.60;99.90;;;;;;5075894;28;20060;-61
2021/12/26 04:11:29;;;;;;;5.68;2.22;;;-5.50;99.90;;;;;;5058351;28;20420;-61
2021/12/26 04:13:55;;;;;;;5.60;2.35;;;-5.60;99.90;;;;;;5076811;28;20504;-61
2021/12/26 04:16:21;;;;;;;5.10;2.10;;;-5.60;99.90;;;;;;5075954;28;20871;-61
2021/12/26 04:18:47;;;;;;;6.68;2.10;;;-5.50;99.90;;;;;;5077423;28;20048;-61
2021/12/26 04:21:12;;;;;;;5.18;2.05;;;-5.60;99.90;;;;;;5077584;28;20068;-61
2021/12/26 04:23:38;;;;;;;4.90;2.10;;;-5.60;99.90;;;;;;5077577;28;20104;-60
2021/12/26 04:26:04;;;;;;;5.68;2.25;;;-5.60;99.90;;;;;;5077292;28;20037;-61
2021/12/26 04:28:30;;;;;;;5.05;2.10;;;-5.60;99.90;;;;;;5077368;28;20319;-62
2021/12/26 04:30:56;;;;;;;8.18;2.85;;;-5.60;99.90;;;;;;5076751;28;20049;-61
2021/12/26 04:33:22;;;;;;;6.18;1.95;;;-5.70;99.90;;;;;;5076907;28;20040;-61
2021/12/26 04:35:48;;;;;;;5.88;2.72;;;-5.60;99.90;;;;;;5077242;28;20044;-62
2021/12/26 04:38:13;;;;;;;6.10;2.65;;;-5.60;99.90;;;;;;5076711;28;20048;-61
2021/12/26 04:40:39;;;;;;;6.07;2.05;;;-5.70;99.90;;;;;;5077216;28;20114;-61
2021/12/26 04:43:05;;;;;;;5.47;2.28;;;-5.70;99.90;;;;;;5076751;28;20072;-61
2021/12/26 04:45:31;;;;;;;5.88;2.08;;;-5.80;99.90;;;;;;5058710;28;20037;-61
2021/12/26 04:48:01;;;;;;;5.80;2.28;;;-5.70;99.90;;;;;;5058643;28;20104;-60
2021/12/26 04:50:28;;;;;;;5.32;1.95;;;-5.70;99.90;;;;;;5084286;28;20043;-60
2021/12/26 04:52:53;;;;;;;6.32;2.10;;;-5.80;99.90;;;;;;5062663;28;20040;-61
2021/12/26 04:55:23;;;;;;;6.85;2.10;;;-5.80;99.90;;;;;;5083840;28;20037;-60
2021/12/26 04:57:50;;;;;;;5.38;2.08;;;-5.80;99.90;;;;;;5076784;28;20231;-60
2021/12/26 05:00:18;;;;;;;5.30;2.05;;;-5.80;99.90;;;;;;5076818;28;20079;-61
2021/12/26 05:02:44;;;;;;;5.75;2.42;;;-5.80;99.90;;;;;;5076709;28;20096;-61
2021/12/26 05:05:11;;;;;;;4.93;2.38;;;-5.80;99.90;;;;;;5075200;28;20051;-61
2021/12/26 05:07:39;;;;;;;7.60;2.33;;;-5.80;99.90;;;;;;5075071;28;20524;-61
2021/12/26 05:10:07;;;;;;;4.95;2.08;;;-5.90;99.90;;;;;;5076808;28;20064;-61
2021/12/26 05:12:33;;;;;;;6.28;2.30;;;-5.90;99.90;;;;;;5075089;28;20543;-61
2021/12/26 05:15:01;;;;;;;5.60;1.98;;;-5.90;99.90;;;;;;5076407;28;20107;-62
2021/12/26 05:17:27;;;;;;;4.63;1.85;;;-5.90;99.90;;;;;;5075143;28;20551;-61
2021/12/26 05:19:52;;;;;;;6.10;2.40;;;-5.90;99.90;;;;;;5058353;28;20487;-61
2021/12/26 05:22:20;;;;;;;5.90;2.28;;;-5.90;99.90;;;;;;5075465;28;20044;-61
2021/12/26 05:24:46;;;;;;;5.82;2.35;;;-5.90;99.90;;;;;;5080217;28;20040;-61
2021/12/26 05:27:12;;;;;;;5.60;2.40;;;-5.90;99.90;;;;;;5080211;28;20100;-61
2021/12/26 05:29:37;;;;;;;6.20;2.22;;;-5.90;99.90;;;;;;5078981;28;20044;-60
2021/12/26 05:32:03;;;;;;;5.50;2.03;;;-5.90;99.90;;;;;;5080177;28;20049;-61
2021/12/26 05:34:29;;;;;;;5.22;1.95;;;-5.90;99.90;;;;;;5078557;28;20897;-61
2021/12/26 05:36:57;;;;;;;4.60;1.88;;;-5.90;99.90;;;;;;5078306;28;20051;-61
2021/12/26 05:39:23;;;;;;;6.35;1.95;;;-5.90;99.90;;;;;;5079684;28;20500;-61
2021/12/26 05:41:49;;;;;;;6.72;2.40;;;-5.80;99.90;;;;;;5078305;28;20059;-63
2021/12/26 05:44:15;;;;;;;7.00;2.70;;;-5.80;99.90;;;;;;5079524;28;20096;-61
2021/12/26 05:46:42;;;;;;;7.45;2.05;;;-5.90;99.90;;;;;;5079650;28;20082;-61
2021/12/26 05:49:08;;;;;;;7.47;2.15;;;-5.90;99.90;;;;;;5078322;28;20492;-62
2021/12/26 05:51:34;;;;;;;5.35;2.03;;;-5.80;99.90;;;;;;5078234;28;20073;-61
2021/12/26 05:54:00;;;;;;;7.22;2.58;;;-5.80;99.90;;;;;;5097229;28;20044;-60
2021/12/26 05:56:26;;;;;;;6.05;2.42;;;-5.80;99.90;;;;;;5077945;28;20072;-61
2021/12/26 05:58:52;;;;;;;6.03;2.03;;;-5.90;99.90;;;;;;5079364;28;20060;-61
2021/12/26 06:01:19;;;;;;;6.40;2.63;;;-5.90;99.90;;;;;;5078284;28;20041;-60
2021/12/26 06:03:45;;;;;;;5.15;2.50;;;-6.00;99.90;;;;;;5079477;28;20033;-61
2021/12/26 06:06:13;;;;;;;6.10;2.30;;;-5.90;99.90;;;;;;5079614;28;20093;-61
2021/12/26 06:08:39;;;;;;;6.05;2.08;;;-5.90;99.90;;;;;;5079067;28;20040;-61
2021/12/26 06:11:05;;;;;;;7.07;3.45;;;-5.90;99.90;;;;;;5079174;28;20063;-62
2021/12/26 06:13:32;;;;;;;4.68;2.05;;;-6.00;99.90;;;;;;5078808;28;20106;-60
2021/12/26 06:15:58;;;;;;;5.57;2.05;;;-6.00;99.90;;;;;;5079153;28;20061;-61
2021/12/26 06:18:24;;;;;;;5.60;2.08;;;-5.90;99.90;;;;;;5079248;28;20044;-61
2021/12/26 06:20:50;;;;;;;4.68;1.90;;;-5.90;99.90;;;;;;5079414;28;20097;-60
2021/12/26 06:23:16;;;;;;;5.85;2.25;;;-5.90;99.90;;;;;;5079194;28;20040;-61
2021/12/26 06:25:41;;;;;;;5.65;2.72;;;-5.90;99.90;;;;;;5079328;28;20068;-60
2021/12/26 06:28:07;;;;;;;6.90;2.50;;;-5.90;99.90;;;;;;5078680;28;20143;-60
2021/12/26 06:30:34;;;;;;;6.28;2.30;;;-5.90;99.90;;;;;;5077412;28;20056;-61
2021/12/26 06:33:00;;;;;;;7.25;2.28;;;-5.90;99.90;;;;;;5078418;28;20543;-60
2021/12/26 06:35:26;;;;;;;6.93;2.65;;;-5.90;99.90;;;;;;5077841;28;20048;-60
2021/12/26 06:37:52;;;;;;;8.65;3.13;;;-5.90;99.90;;;;;;5076079;28;20098;-61
2021/12/26 06:40:20;;;;;;;7.78;3.00;;;-5.90;99.90;;;;;;5074305;28;20044;-61
2021/12/26 06:42:49;;;;;;;6.95;2.40;;;-5.90;99.90;;;;;;5057156;28;20124;-61
2021/12/26 06:45:17;;;;;;;7.10;2.45;;;-5.90;99.90;;;;;;5075217;28;20041;-62
2021/12/26 06:47:49;;;;;;;7.03;2.60;;;-5.90;99.90;;;;;;5075311;28;20616;-61
2021/12/26 06:50:16;;;;;;;5.47;2.33;;;-5.90;99.90;;;;;;5080383;28;20060;-62
2021/12/26 06:52:42;;;;;;;6.13;2.45;;;-5.90;99.90;;;;;;5095508;28;20048;-62
2021/12/26 06:55:10;;;;;;;7.38;2.33;;;-5.90;99.90;;;;;;5083551;28;20044;-62
2021/12/26 06:57:37;;;;;;;5.70;2.20;;;-5.80;99.90;;;;;;5075179;28;20049;-62
2021/12/26 07:00:09;;;;;;;8.18;2.70;;;-5.90;99.90;;;;;;5075291;28;20056;-61
2021/12/26 07:02:35;;;;;;;7.70;2.63;;;-5.90;99.90;;;;;;5073304;28;20050;-62
2021/12/26 07:05:01;;;;;;;6.90;2.70;;;-5.90;99.90;;;;;;5074909;28;20112;-62
2021/12/26 07:07:27;;;;;;;7.97;3.92;;;-5.90;99.90;;;;;;5073147;28;20109;-62
2021/12/26 07:09:53;;;;;;;7.90;2.83;;;-5.80;99.90;;;;;;5074785;28;20056;-61
2021/12/26 07:12:19;;;;;;;5.65;3.15;;;-5.90;99.90;;;;;;5087545;28;20063;-61
2021/12/26 07:14:44;;;;;;;6.75;2.60;;;-5.90;99.90;;;;;;5094632;28;20059;-62
2021/12/26 07:17:11;;;;;;;6.53;2.72;;;-5.90;99.90;;;;;;5094172;28;20099;-64
2021/12/26 07:19:37;;;;;;;6.10;2.72;;;-5.90;99.90;;;;;;5095264;28;20044;-63
2021/12/26 07:22:03;;;;;;;7.35;2.72;;;-5.90;99.90;;;;;;5095216;28;20036;-62
2021/12/26 07:24:29;;;;;;;8.20;2.92;;;-5.90;99.90;;;;;;5089032;28;20476;-62
2021/12/26 07:26:55;;;;;;;7.28;3.00;;;-5.90;99.90;;;;;;5083660;28;20044;-62
2021/12/26 07:29:21;;;;;;;6.72;2.50;;;-5.90;99.90;;;;;;5085638;28;20050;-62
2021/12/26 07:31:47;;;;;;;7.43;2.78;;;-5.90;99.90;;;;;;5085771;28;20048;-62
2021/12/26 07:34:13;;;;;;;8.27;3.10;;;-5.90;99.90;;;;;;5089106;28;20067;-62
2021/12/26 07:36:40;;;;;;;7.05;3.17;;;-5.90;99.90;;;;;;5094998;28;20056;-62
2021/12/26 07:39:06;;;;;;;7.28;3.53;;;-5.90;99.90;;;;;;5094732;28;20040;-61
2021/12/26 07:41:31;;;;;;;12.25;3.15;;;-5.90;99.90;;;;;;5094565;28;20051;-61
2021/12/26 07:43:57;;;;;;;6.55;2.70;;;-6.00;99.90;;;;;;5094392;28;20051;-61
2021/12/26 07:46:23;;;;;;;7.90;2.38;;;-5.90;99.90;;;;;;5094655;28;20040;-61
2021/12/26 07:48:49;;;;;;;6.82;2.78;;;-5.90;99.90;;;;;;5094917;28;20099;-61
2021/12/26 07:51:15;;;;;;;8.27;3.42;;;-5.90;99.90;;;;;;5080240;28;20051;-61
2021/12/26 07:53:41;;;;;;;6.97;3.13;;;-5.90;99.90;;;;;;5074325;28;20044;-61
2021/12/26 07:56:07;;;;;;;7.38;3.20;;;-5.90;99.90;;;;;;5074180;28;20105;-61
2021/12/26 07:58:33;;;;;;;7.40;4.05;;;-5.90;99.90;;;;;;5074111;28;20048;-61
2021/12/26 08:00:59;;;;;;;8.77;3.38;;;-5.90;99.90;;;;;;5074105;28;20052;-61
2021/12/26 08:03:24;;;;;;;9.02;3.15;;;-5.90;99.90;;;;;;5073414;28;20039;-62
2021/12/26 08:05:50;;;;;;;6.20;2.90;;;-6.00;99.90;;;;;;5075689;28;20049;-61
2021/12/26 08:08:16;;;;;;;7.90;3.20;;;-5.90;99.90;;;;;;5081880;28;20048;-61
2021/12/26 08:10:42;;;;;;;8.63;3.65;;;-5.90;99.90;;;;;;5085986;28;20040;-61
2021/12/26 08:13:08;;;;;;;6.95;3.55;;;-5.90;99.90;;;;;;5074535;28;20067;-61
2021/12/26 08:15:34;;;;;;;9.30;3.50;;;-5.90;99.90;;;;;;5076789;28;20060;-61
2021/12/26 08:17:59;;;;;;;7.88;3.58;;;-5.90;99.90;;;;;;5077200;28;20060;-61
2021/12/26 08:20:25;;;;;;;7.40;3.47;;;-5.90;99.90;;;;;;5075824;28;20052;-60
2021/12/26 08:22:51;;;;;;;9.80;3.67;;;-5.90;99.90;;;;;;5077583;28;20080;-61
2021/12/26 08:25:17;;;;;;;7.30;3.45;;;-5.90;99.90;;;;;;5077462;28;20054;-61
2021/12/26 08:27:43;;;;;;;8.98;3.58;;;-5.80;99.90;;;;;;5079899;28;20044;-60
2021/12/26 08:30:10;;;;;;;7.32;3.40;;;-5.80;99.90;;;;;;5077225;28;20045;-60
2021/12/26 08:32:39;;;;;;;7.50;3.95;;;-5.70;99.90;;;;;;5076843;28;20071;-61
2021/12/26 08:35:07;;;;;;;11.48;4.03;;;-5.60;99.90;;;;;;5058939;28;20040;-61
2021/12/26 08:37:33;;;;;;;8.68;4.45;;;-5.60;99.90;;;;;;5076422;28;20041;-60
2021/12/26 08:39:59;;;;;;;7.35;3.83;;;-5.60;99.90;;;;;;5075493;28;20108;-61
2021/12/26 08:42:25;;;;;;;7.45;3.47;;;-5.50;99.90;;;;;;5077053;28;20044;-61
2021/12/26 08:44:52;;;;;;;8.43;3.50;;;-5.50;99.90;;;;;;5076757;28;20159;-60
2021/12/26 08:47:19;;;;;;;7.28;3.42;;;-5.50;99.90;;;;;;5077177;28;20049;-61
2021/12/26 08:49:45;;;;;;;7.80;3.70;;;-5.50;99.90;;;;;;5077195;28;20050;-61
2021/12/26 08:52:11;;;;;;;10.38;4.57;;;-5.50;99.90;;;;;;5095774;28;20080;-61
2021/12/26 08:54:38;;;;;;;7.25;3.90;;;-5.30;99.90;;;;;;5088123;28;20056;-61
2021/12/26 08:57:06;;;;;;;8.50;4.78;;;-5.30;99.90;;;;;;5077800;28;20067;-62
2021/12/26 08:59:31;;;;;;;8.98;4.68;;;-5.30;99.90;;;;;;5080871;28;20063;-60
2021/12/26 09:01:59;;;;;;;7.75;4.15;;;-5.30;99.90;;;;;;5081089;28;20044;-60
2021/12/26 09:04:27;;;;;;;8.40;3.95;;;-5.20;99.90;;;;;;5080957;28;20040;-61
2021/12/26 09:06:53;;;;;;;8.15;3.80;;;-5.20;99.90;;;;;;5080703;28;20052;-60
2021/12/26 09:09:18;;;;;;;8.23;4.80;;;-5.10;99.90;;;;;;5080127;28;20062;-60
2021/12/26 09:11:44;;;;;;;9.57;4.53;;;-5.00;99.90;;;;;;5080104;28;20055;-61
2021/12/26 09:14:10;;;;;;;10.20;4.32;;;-5.00;99.90;;;;;;5079798;28;20049;-61
2021/12/26 09:16:36;;;;;;;8.63;4.15;;;-4.90;99.90;;;;;;5078964;28;20530;-60
2021/12/26 09:19:05;;;;;;;8.93;4.40;;;-4.90;99.90;;;;;;5080343;28;20036;-60
2021/12/26 09:21:31;;;;;;;7.80;3.75;;;-4.90;99.90;;;;;;5080399;28;20044;-61
2021/12/26 09:23:57;;;;;;;9.82;4.68;;;-4.90;99.90;;;;;;5080232;28;20091;-61
2021/12/26 09:26:23;;;;;;;8.70;4.05;;;-4.90;99.90;;;;;;5080176;28;20052;-61
2021/12/26 09:28:49;;;;;;;9.52;4.20;;;-4.90;99.90;;;;;;5079947;28;20041;-61
2021/12/26 09:31:16;;;;;;;9.52;4.65;;;-4.80;99.90;;;;;;5079113;28;20408;-60
2021/12/26 09:33:41;;;;;;;10.88;3.88;;;-4.80;99.90;;;;;;5080315;28;20056;-61
2021/12/26 09:36:07;;;;;;;9.80;4.13;;;-4.70;99.90;;;;;;5080096;28;20084;-61
2021/12/26 09:38:33;;;;;;;9.10;4.30;;;-4.60;99.90;;;;;;5080327;28;20048;-61
2021/12/26 09:40:59;;;;;;;9.57;4.47;;;-4.60;99.90;;;;;;5045331;28;20040;-61
2021/12/26 09:43:26;;;;;;;6.97;3.60;;;-4.60;99.90;;;;;;5078448;28;20197;-61
2021/12/26 09:45:52;;;;;;;9.45;3.75;;;-4.50;99.90;;;;;;5078438;28;20125;-60
2021/12/26 09:48:19;;;;;;;8.95;3.70;;;-4.40;99.90;;;;;;5079893;28;20033;-61
2021/12/26 09:50:46;;;;;;;9.48;4.03;;;-4.40;99.90;;;;;;5089738;28;20055;-61
2021/12/26 09:53:12;;;;;;;7.35;4.00;;;-4.30;99.90;;;;;;5082172;28;20048;-61
2021/12/26 09:55:38;;;;;;;9.25;4.20;;;-4.30;99.90;;;;;;5082613;28;20091;-61
2021/12/26 09:58:04;;;;;;;9.25;4.15;;;-4.30;99.90;;;;;;5079746;28;20040;-62
2021/12/26 10:00:44;;;;;;;9.65;4.28;;;-4.20;99.90;;;;;;5079683;28;20083;-61
2021/12/26 10:03:25;;;;;;;8.80;3.90;;;-4.20;99.90;;;;;;5078007;28;20469;-61
2021/12/26 10:06:06;;;;;;;9.57;3.75;;;-4.20;99.90;;;;;;5079447;28;20039;-60
2021/12/26 10:08:34;;;;;;;8.60;3.80;;;-4.10;99.90;;;;;;5079466;28;20416;-61
2021/12/26 10:11:17;;;;;;;7.82;3.75;;;-4.10;99.90;;;;;;5077630;28;20770;-61
2021/12/26 10:13:49;;;;;;;8.82;4.15;;;-4.00;99.90;;;;;;5060908;28;20048;-61
2021/12/26 10:16:17;;;;;;;9.00;3.60;;;-3.90;99.90;;;;;;5077763;28;20072;-61
2021/12/26 10:18:44;;;;;;;8.73;3.08;;;-3.90;99.90;;;;;;5079679;28;20404;-61
2021/12/26 10:21:28;;;;;;;7.45;3.38;;;-3.90;99.90;;;;;;5082243;28;20415;-64
2021/12/26 10:24:06;;;;;;;8.70;3.28;;;-3.80;99.90;;;;;;5097246;28;20044;-61
2021/12/26 10:26:38;;;;;;;8.48;4.10;;;-3.70;99.90;;;;;;5097618;28;20669;-61
2021/12/26 10:29:18;;;;;;;7.38;3.63;;;-3.70;99.90;;;;;;5098835;28;20040;-60
2021/12/26 10:31:55;;;;;;;6.70;3.30;;;-3.70;99.90;;;;;;5097960;28;20104;-60
2021/12/26 10:34:45;;;;;;;9.00;3.75;;;-3.60;99.90;;;;;;5098787;28;20063;-61
2021/12/26 10:37:13;;;;;;;8.27;3.60;;;-3.50;99.90;;;;;;5097350;28;20048;-61
2021/12/26 10:39:42;;;;;;;9.35;3.90;;;-3.50;99.90;;;;;;5097371;28;20085;-60
2021/12/26 10:42:13;;;;;;;8.23;4.18;;;-3.40;99.90;;;;;;5098933;28;20785;-61
2021/12/26 10:44:50;;;;;;;7.53;3.30;;;-3.30;99.90;;;;;;5097205;28;20108;-61
2021/12/26 10:47:22;;;;;;;8.00;3.75;;;-3.30;99.90;;;;;;5098888;28;20385;-61
2021/12/26 10:49:52;;;;;;;9.30;4.53;;;-3.20;99.90;;;;;;5098251;28;20044;-61
2021/12/26 10:52:39;;;;;;;8.57;3.88;;;-3.10;99.90;;;;;;5098284;28;20415;-61
2021/12/26 10:55:14;;;;;;;8.93;3.92;;;-3.10;99.90;;;;;;5055970;28;20084;-61
2021/12/26 10:57:42;;;;;;;7.60;3.42;;;-3.00;99.90;;;;;;5078486;28;20040;-61
2021/12/26 11:00:38;;;;;;;9.95;4.18;;;-3.00;99.90;;;;;;5076808;28;20045;-60
2021/12/26 11:03:09;;;;;;;7.22;3.95;;;-2.90;99.90;;;;;;5076341;28;20456;-60
2021/12/26 11:05:46;;;;;;;8.77;3.63;;;-2.80;99.90;;;;;;5078298;28;20102;-60
2021/12/26 11:08:18;;;;;;;7.22;4.03;;;-2.80;99.90;;;;;;5078255;28;20076;-61
2021/12/26 11:10:50;;;;;;;6.97;3.38;;;-2.70;99.90;;;;;;5077657;28;20582;-60
2021/12/26 11:13:19;;;;;;;14.10;4.05;;;-2.70;99.90;;;;;;5077497;28;20051;-60
2021/12/26 11:15:48;;;;;;;7.43;3.40;;;-2.60;99.90;;;;;;5077555;28;20104;-61
2021/12/26 11:18:16;;;;;;;8.50;3.50;;;-2.60;99.90;;;;;;5077914;28;20037;-61
2021/12/26 11:20:50;;;;;;;7.63;3.33;;;-2.50;99.90;;;;;;5077437;28;20051;-60
2021/12/26 11:23:31;;;;;;;6.60;3.20;;;-2.40;99.90;;;;;;5077641;28;20051;-60
2021/12/26 11:26:15;;;;;;;7.80;3.45;;;-2.40;99.90;;;;;;5077712;28;20080;-60
2021/12/26 11:28:44;;;;;;;7.47;3.70;;;-2.30;99.90;;;;;;5077536;28;20108;-60
2021/12/26 11:31:15;;;;;;;7.10;3.15;;;-2.30;99.90;;;;;;5077606;28;20043;-60
2021/12/26 11:33:41;;;;;;;8.00;3.78;;;-2.20;99.90;;;;;;5077613;28;20048;-60
2021/12/26 11:36:10;;;;;;;8.30;3.60;;;-2.20;99.90;;;;;;5077354;28;20543;-60
2021/12/26 11:38:37;;;;;;;8.82;4.15;;;-2.10;99.90;;;;;;5077446;28;20049;-60
2021/12/26 11:41:16;;;;;;;7.05;3.38;;;-2.10;99.90;;;;;;5059575;28;20045;-61
2021/12/26 11:44:04;;;;;;;8.60;3.90;;;-2.00;99.90;;;;;;5076836;28;20053;-61
2021/12/26 11:47:25;;;;;;;8.52;3.85;;;-2.00;99.90;;;;;;5077702;28;20382;-61
2021/12/26 11:50:16;;;;;;;8.18;3.47;;;-1.90;99.90;;;;;;5036921;28;20057;-61
2021/12/26 11:53:00;;;;;;;8.07;4.13;;;-1.90;99.90;;;;;;5097861;28;20036;-60
2021/12/26 11:55:44;;;;;;;9.65;3.53;;;-1.80;99.90;;;;;;5082685;28;20072;-63
2021/12/26 11:58:15;;;;;;;8.98;4.07;;;-1.80;99.90;;;;;;5077160;28;20043;-60
2021/12/26 12:00:49;;;;;;;7.47;3.47;;;-1.80;99.90;;;;;;5076725;28;20048;-62
2021/12/26 12:03:25;;;;;;;9.93;3.90;;;-1.80;99.90;;;;;;5077028;28;20042;-62
2021/12/26 12:05:52;;;;;;;8.35;3.78;;;-1.80;99.90;;;;;;5076969;28;20036;-60
2021/12/26 12:08:30;;;;;;;7.22;3.78;;;-1.80;99.90;;;;;;5077050;28;20394;-61
2021/12/26 12:11:05;;;;;;;9.73;4.97;;;-1.80;99.90;;;;;;5076589;28;20076;-61
2021/12/26 12:13:50;;;;;;;8.13;3.75;;;-1.80;99.90;;;;;;5076457;28;20052;-60
2021/12/26 12:16:26;;;;;;;9.10;4.20;;;-1.80;99.90;;;;;;5075038;28;20650;-61
2021/12/26 12:18:53;;;;;;;10.48;4.57;;;-1.80;99.90;;;;;;5077005;28;20053;-61
2021/12/26 12:21:20;;;;;;;8.30;3.90;;;-1.80;99.90;;;;;;5076786;28;20045;-61
2021/12/26 12:24:14;;;;;;;10.90;4.32;;;-1.70;99.90;;;;;;5076298;28;20048;-61
2021/12/26 12:26:47;;;;;;;11.18;4.15;;;-1.70;99.90;;;;;;5075847;28;20040;-61
2021/12/26 12:29:23;;;;;;;9.07;3.83;;;-1.70;99.90;;;;;;5076084;28;20110;-61
2021/12/26 12:32:09;;;;;;;10.45;3.80;;;-1.60;99.90;;;;;;5076242;28;20036;-62
2021/12/26 12:34:54;;;;;;;8.80;4.28;;;-1.70;99.90;;;;;;5077079;28;20045;-62
2021/12/26 12:37:35;;;;;;;8.57;3.80;;;-1.60;99.90;;;;;;5076851;28;20055;-62
2021/12/26 12:40:09;;;;;;;7.72;4.00;;;-1.60;99.90;;;;;;5076137;28;20100;-62
2021/12/26 12:42:36;;;;;;;10.77;4.10;;;-1.60;99.90;;;;;;5076574;28;20070;-62
2021/12/26 12:45:04;;;;;;;8.65;4.30;;;-1.50;99.90;;;;;;5075455;28;20044;-61
2021/12/26 12:47:29;;;;;;;9.38;4.00;;;-1.50;99.90;;;;;;5077292;28;20429;-61
2021/12/26 12:50:04;;;;;;;9.45;4.13;;;-1.50;99.90;;;;;;5079989;28;20073;-62
2021/12/26 12:52:47;;;;;;;10.25;4.43;;;-1.50;99.90;;;;;;5097512;28;20073;-62
2021/12/26 12:55:41;;;;;;;7.70;3.55;;;-1.40;99.90;;;;;;5084527;28;20053;-62
2021/12/26 12:58:31;;;;;;;8.93;4.10;;;-1.40;99.90;;;;;;5074551;28;20053;-61